McCarthy, AK

2:29 AM AKDT on April 27, 2017 (GMT -0800)
Gulkana | | Change Station

Elev 1578 ft 62.15 °N, 145.46 °W | Updated 36 minutes ago

Mostly Cloudy
Mostly Cloudy
40 °F
Feels Like 38 °F
N
4
Wind Variable Wind from ENE

Today
High -- | Low -- °F
--% Chance of Precip.
Yesterday
High -- | Low -- °F
Precip. -- in
Pressure 29.58 in
Visibility 10.0 miles
Clouds Scattered Clouds 9000 ft
Overcast 12000 ft
Windchill 38 °F
Dew Point 34 °F
Humidity 79%
Rainfall 0.00 in
Snow Depth Not available.
5:32 AM 9:28 PM
New Moon, 1% visible
METAR PAGK 270953Z AUTO 06003KT 10SM SCT090 OVC120 04/01 A2955 RMK AO2 SLP016 T00440011 TSNO
Pressure 29.58 in
Visibility 10.0 miles
Clouds Scattered Clouds 9000 ft
Overcast 12000 ft
Windchill 38 °F
Dew Point 34 °F
Humidity 79%
Rainfall 0.00 in
Snow Depth Not available.
5:32 AM 9:28 PM
New Moon, 1% visible
METAR PAGK 270953Z AUTO 06003KT 10SM SCT090 OVC120 04/01 A2955 RMK AO2 SLP016 T00440011 TSNO

Get Severe Weather Alerts

Thanks for signing up!

Be on the lookout for a verification email in your inbox.

You'll start receiving the daily forecast at 8 AM.

×

10-Day Weather Forecast

Almanac

Astronomy

Apr. 27, 2017 Rise Set
Actual Time
Civil Twilight
Nautical Twilight
Astronomical Twilight
Moon
Length of Visible Light
Length of Day
Tomorrow will be .
, % of the Moon is Illuminated

Today's Extremes

State Highs State Lows

Community

WunderPhotos

WunderBlog® & News

Nearby

Air Quality

  Air Quality AQ Index Pollutant
Not available.

Snow Depth

Station Depth Elevation

Earthquake Activity

City Distance Mag. Time & Date
Minimum magnitude displayed is 2.5.

Coastal Water Temperatures

Place Temperature

Stations

Nearby Weather Stations

Station Location Temp. Windchill Dew Point Humidity Wind Precip. Elev Updated Type
                   

Watches & Warnings

There are currently no watches in effect.